sensor_id;sensor_type;location;lat;lon;timestamp;P1;durP1;ratioP1;P2;durP2;ratioP2
54557;SDS011;40452;50.080;20.040;2023-04-28T02:55:13;14.35;;;8.30;;
54557;SDS011;40452;50.080;20.040;2023-04-28T02:57:47;15.52;;;9.25;;
54557;SDS011;40452;50.080;20.040;2023-04-28T03:00:13;16.58;;;8.95;;
54557;SDS011;40452;50.080;20.040;2023-04-28T03:02:39;17.30;;;9.00;;
54557;SDS011;40452;50.080;20.040;2023-04-28T03:05:04;15.18;;;8.73;;
54557;SDS011;40452;50.080;20.040;2023-04-28T03:07:30;16.63;;;8.95;;
54557;SDS011;40452;50.080;20.040;2023-04-28T03:09:56;21.30;;;9.05;;
54557;SDS011;40452;50.080;20.040;2023-04-28T03:12:21;16.58;;;9.32;;
54557;SDS011;40452;50.080;20.040;2023-04-28T03:14:48;13.82;;;8.32;;
54557;SDS011;40452;50.080;20.040;2023-04-28T03:17:13;13.82;;;8.35;;
54557;SDS011;40452;50.080;20.040;2023-04-28T03:19:39;15.75;;;8.52;;
54557;SDS011;40452;50.080;20.040;2023-04-28T03:22:05;12.20;;;7.70;;
54557;SDS011;40452;50.080;20.040;2023-04-28T03:24:30;13.48;;;7.65;;
54557;SDS011;40452;50.080;20.040;2023-04-28T03:26:56;18.88;;;8.35;;
54557;SDS011;40452;50.080;20.040;2023-04-28T03:29:21;14.48;;;7.85;;
54557;SDS011;40452;50.080;20.040;2023-04-28T03:31:49;16.42;;;7.72;;
54557;SDS011;40452;50.080;20.040;2023-04-28T03:34:15;14.73;;;7.82;;
54557;SDS011;40452;50.080;20.040;2023-04-28T03:36:40;14.93;;;8.15;;
54557;SDS011;40452;50.080;20.040;2023-04-28T03:39:06;12.20;;;7.35;;
54557;SDS011;40452;50.080;20.040;2023-04-28T03:41:31;31.17;;;18.08;;
54557;SDS011;40452;50.080;20.040;2023-04-28T03:43:57;20.63;;;12.15;;
54557;SDS011;40452;50.080;20.040;2023-04-28T03:46:22;19.02;;;11.18;;
54557;SDS011;40452;50.080;20.040;2023-04-28T03:48:48;17.67;;;10.80;;
54557;SDS011;40452;50.080;20.040;2023-04-28T03:51:13;21.15;;;11.25;;
54557;SDS011;40452;50.080;20.040;2023-04-28T03:53:39;20.67;;;11.23;;
54557;SDS011;40452;50.080;20.040;2023-04-28T03:56:04;19.15;;;10.93;;
54557;SDS011;40452;50.080;20.040;2023-04-28T03:58:30;22.08;;;11.15;;
54557;SDS011;40452;50.080;20.040;2023-04-28T04:00:56;22.27;;;11.20;;
54557;SDS011;40452;50.080;20.040;2023-04-28T04:03:21;19.67;;;11.13;;
54557;SDS011;40452;50.080;20.040;2023-04-28T04:05:50;19.73;;;11.65;;
54557;SDS011;40452;50.080;20.040;2023-04-28T04:08:15;21.25;;;11.32;;
54557;SDS011;40452;50.080;20.040;2023-04-28T04:10:41;19.27;;;11.30;;
54557;SDS011;40452;50.080;20.040;2023-04-28T04:13:06;18.10;;;10.95;;
54557;SDS011;40452;50.080;20.040;2023-04-28T04:15:32;19.20;;;10.82;;
54557;SDS011;40452;50.080;20.040;2023-04-28T04:17:57;18.60;;;11.50;;
54557;SDS011;40452;50.080;20.040;2023-04-28T04:20:23;21.75;;;11.20;;
54557;SDS011;40452;50.080;20.040;2023-04-28T04:22:48;20.50;;;10.68;;
54557;SDS011;40452;50.080;20.040;2023-04-28T04:25:14;21.20;;;10.95;;
54557;SDS011;40452;50.080;20.040;2023-04-28T04:27:39;18.17;;;10.32;;
54557;SDS011;40452;50.080;20.040;2023-04-28T04:30:05;17.60;;;10.50;;
54557;SDS011;40452;50.080;20.040;2023-04-28T04:32:31;18.48;;;10.80;;
54557;SDS011;40452;50.080;20.040;2023-04-28T04:34:57;20.77;;;10.18;;
54557;SDS011;40452;50.080;20.040;2023-04-28T04:37:22;21.73;;;10.98;;
54557;SDS011;40452;50.080;20.040;2023-04-28T04:39:48;17.77;;;10.70;;
54557;SDS011;40452;50.080;20.040;2023-04-28T04:42:13;17.15;;;10.00;;
54557;SDS011;40452;50.080;20.040;2023-04-28T04:44:39;16.67;;;9.50;;
54557;SDS011;40452;50.080;20.040;2023-04-28T04:47:04;15.35;;;9.10;;
54557;SDS011;40452;50.080;20.040;2023-04-28T04:49:30;19.10;;;10.50;;
54557;SDS011;40452;50.080;20.040;2023-04-28T04:51:55;24.77;;;9.80;;
54557;SDS011;40452;50.080;20.040;2023-04-28T04:54:21;19.67;;;9.88;;
54557;SDS011;40452;50.080;20.040;2023-04-28T04:56:46;18.02;;;10.00;;
54557;SDS011;40452;50.080;20.040;2023-04-28T04:59:12;18.60;;;10.10;;
54557;SDS011;40452;50.080;20.040;2023-04-28T05:01:37;20.98;;;10.63;;
54557;SDS011;40452;50.080;20.040;2023-04-28T05:04:03;16.13;;;9.30;;
54557;SDS011;40452;50.080;20.040;2023-04-28T05:06:28;44.75;;;14.95;;
54557;SDS011;40452;50.080;20.040;2023-04-28T05:08:55;32.15;;;15.98;;
54557;SDS011;40452;50.080;20.040;2023-04-28T05:11:22;32.63;;;17.08;;
54557;SDS011;40452;50.080;20.040;2023-04-28T05:13:47;35.08;;;16.63;;
54557;SDS011;40452;50.080;20.040;2023-04-28T05:16:13;28.15;;;15.38;;
54557;SDS011;40452;50.080;20.040;2023-04-28T05:18:38;31.08;;;15.63;;
54557;SDS011;40452;50.080;20.040;2023-04-28T12:19:01;13.48;;;7.50;;
54557;SDS011;40452;50.080;20.040;2023-04-28T12:21:31;14.25;;;8.75;;
54557;SDS011;40452;50.080;20.040;2023-04-28T12:23:57;16.60;;;9.57;;
54557;SDS011;40452;50.080;20.040;2023-04-28T12:26:23;18.73;;;10.20;;
54557;SDS011;40452;50.080;20.040;2023-04-28T12:28:49;16.73;;;10.10;;
54557;SDS011;40452;50.080;20.040;2023-04-28T12:31:15;16.58;;;10.10;;
54557;SDS011;40452;50.080;20.040;2023-04-28T12:33:40;14.73;;;10.20;;
54557;SDS011;40452;50.080;20.040;2023-04-28T12:36:06;17.33;;;9.40;;
54557;SDS011;40452;50.080;20.040;2023-04-28T12:38:31;16.23;;;9.57;;
54557;SDS011;40452;50.080;20.040;2023-04-28T12:40:57;18.73;;;10.02;;
54557;SDS011;40452;50.080;20.040;2023-04-28T12:43:23;17.27;;;9.32;;
54557;SDS011;40452;50.080;20.040;2023-04-28T12:45:51;18.95;;;9.85;;
54557;SDS011;40452;50.080;20.040;2023-04-28T12:48:17;18.02;;;10.13;;
54557;SDS011;40452;50.080;20.040;2023-04-28T12:50:43;17.25;;;10.27;;
54557;SDS011;40452;50.080;20.040;2023-04-28T12:53:08;17.40;;;9.18;;
54557;SDS011;40452;50.080;20.040;2023-04-28T12:55:35;15.98;;;8.07;;
54557;SDS011;40452;50.080;20.040;2023-04-28T12:58:00;15.40;;;8.57;;
54557;SDS011;40452;50.080;20.040;2023-04-28T13:00:26;17.17;;;8.10;;
54557;SDS011;40452;50.080;20.040;2023-04-28T13:02:51;12.82;;;7.32;;
54557;SDS011;40452;50.080;20.040;2023-04-28T13:05:17;11.48;;;7.03;;
54557;SDS011;40452;50.080;20.040;2023-04-28T13:07:43;14.88;;;7.07;;
54557;SDS011;40452;50.080;20.040;2023-04-28T13:10:09;13.85;;;6.70;;
54557;SDS011;40452;50.080;20.040;2023-04-28T13:12:35;11.30;;;6.07;;
54557;SDS011;40452;50.080;20.040;2023-04-28T13:15:00;11.60;;;6.65;;
54557;SDS011;40452;50.080;20.040;2023-04-28T13:17:26;15.60;;;7.22;;
54557;SDS011;40452;50.080;20.040;2023-04-28T13:19:52;16.58;;;7.07;;
54557;SDS011;40452;50.080;20.040;2023-04-28T13:22:18;12.70;;;7.18;;
54557;SDS011;40452;50.080;20.040;2023-04-28T13:24:45;9.40;;;5.60;;
54557;SDS011;40452;50.080;20.040;2023-04-28T13:27:11;9.48;;;5.03;;
54557;SDS011;40452;50.080;20.040;2023-04-28T13:29:36;7.45;;;4.30;;
54557;SDS011;40452;50.080;20.040;2023-04-28T13:32:02;10.27;;;5.35;;
54557;SDS011;40452;50.080;20.040;2023-04-28T13:34:29;9.48;;;4.53;;
54557;SDS011;40452;50.080;20.040;2023-04-28T13:36:55;8.35;;;5.50;;
54557;SDS011;40452;50.080;20.040;2023-04-28T13:39:21;8.65;;;4.70;;
54557;SDS011;40452;50.080;20.040;2023-04-28T13:41:47;7.20;;;4.43;;
54557;SDS011;40452;50.080;20.040;2023-04-28T13:44:13;9.73;;;4.70;;
54557;SDS011;40452;50.080;20.040;2023-04-28T13:46:39;8.52;;;4.47;;
54557;SDS011;40452;50.080;20.040;2023-04-28T13:49:06;7.75;;;4.65;;
54557;SDS011;40452;50.080;20.040;2023-04-28T13:51:33;13.15;;;4.47;;
54557;SDS011;40452;50.080;20.040;2023-04-28T13:53:59;10.80;;;4.40;;
54557;SDS011;40452;50.080;20.040;2023-04-28T13:56:29;8.50;;;4.10;;
54557;SDS011;40452;50.080;20.040;2023-04-28T13:58:55;10.73;;;4.22;;
54557;SDS011;40452;50.080;20.040;2023-04-28T14:01:21;6.32;;;3.80;;
54557;SDS011;40452;50.080;20.040;2023-04-28T14:03:47;6.10;;;4.18;;
54557;SDS011;40452;50.080;20.040;2023-04-28T14:06:12;7.60;;;4.38;;
54557;SDS011;40452;50.080;20.040;2023-04-28T14:08:38;6.95;;;4.10;;
54557;SDS011;40452;50.080;20.040;2023-04-28T14:11:03;8.85;;;4.38;;
54557;SDS011;40452;50.080;20.040;2023-04-28T14:13:29;6.78;;;3.67;;
54557;SDS011;40452;50.080;20.040;2023-04-28T14:15:55;5.85;;;3.83;;
54557;SDS011;40452;50.080;20.040;2023-04-28T14:18:21;9.18;;;3.80;;
54557;SDS011;40452;50.080;20.040;2023-04-28T14:20:47;7.50;;;4.00;;
54557;SDS011;40452;50.080;20.040;2023-04-28T14:23:13;10.98;;;4.10;;
54557;SDS011;40452;50.080;20.040;2023-04-28T14:25:39;8.45;;;3.83;;
54557;SDS011;40452;50.080;20.040;2023-04-28T14:28:05;9.65;;;4.05;;
54557;SDS011;40452;50.080;20.040;2023-04-28T14:30:30;9.43;;;4.03;;
54557;SDS011;40452;50.080;20.040;2023-04-28T14:32:56;9.50;;;4.45;;
54557;SDS011;40452;50.080;20.040;2023-04-28T14:35:22;7.75;;;3.90;;
54557;SDS011;40452;50.080;20.040;2023-04-28T14:37:47;6.60;;;3.72;;
54557;SDS011;40452;50.080;20.040;2023-04-28T14:40:13;9.18;;;4.05;;
54557;SDS011;40452;50.080;20.040;2023-04-28T14:42:39;7.07;;;4.53;;
54557;SDS011;40452;50.080;20.040;2023-04-28T14:45:06;7.18;;;3.83;;
54557;SDS011;40452;50.080;20.040;2023-04-28T14:47:33;7.75;;;3.28;;
54557;SDS011;40452;50.080;20.040;2023-04-28T14:50:00;7.95;;;3.60;;
54557;SDS011;40452;50.080;20.040;2023-04-28T14:52:26;6.10;;;3.58;;
54557;SDS011;40452;50.080;20.040;2023-04-28T14:54:54;6.78;;;3.88;;
54557;SDS011;40452;50.080;20.040;2023-04-28T14:57:20;6.10;;;3.50;;
54557;SDS011;40452;50.080;20.040;2023-04-28T14:59:47;5.75;;;3.50;;
54557;SDS011;40452;50.080;20.040;2023-04-28T15:02:13;7.13;;;3.63;;
54557;SDS011;40452;50.080;20.040;2023-04-28T15:04:38;10.48;;;3.85;;
54557;SDS011;40452;50.080;20.040;2023-04-28T15:07:04;5.97;;;3.35;;
54557;SDS011;40452;50.080;20.040;2023-04-28T15:09:32;6.95;;;3.53;;
54557;SDS011;40452;50.080;20.040;2023-04-28T15:11:57;5.68;;;3.85;;
54557;SDS011;40452;50.080;20.040;2023-04-28T15:14:23;7.03;;;3.97;;
54557;SDS011;40452;50.080;20.040;2023-04-28T15:16:48;6.07;;;3.50;;
54557;SDS011;40452;50.080;20.040;2023-04-28T15:19:14;6.10;;;3.85;;
54557;SDS011;40452;50.080;20.040;2023-04-28T15:21:42;7.20;;;3.35;;
54557;SDS011;40452;50.080;20.040;2023-04-28T15:24:07;6.45;;;3.55;;
54557;SDS011;40452;50.080;20.040;2023-04-28T15:26:33;6.57;;;3.30;;
54557;SDS011;40452;50.080;20.040;2023-04-28T15:28:59;7.45;;;3.55;;
54557;SDS011;40452;50.080;20.040;2023-04-28T15:31:28;6.57;;;3.30;;
54557;SDS011;40452;50.080;20.040;2023-04-28T15:33:53;7.85;;;3.28;;
54557;SDS011;40452;50.080;20.040;2023-04-28T15:36:21;7.35;;;3.58;;
54557;SDS011;40452;50.080;20.040;2023-04-28T15:38:47;6.25;;;3.45;;
54557;SDS011;40452;50.080;20.040;2023-04-28T15:41:14;7.97;;;4.00;;
54557;SDS011;40452;50.080;20.040;2023-04-28T15:43:40;6.30;;;3.30;;
54557;SDS011;40452;50.080;20.040;2023-04-28T15:46:06;9.70;;;3.80;;
54557;SDS011;40452;50.080;20.040;2023-04-28T15:48:38;5.78;;;3.80;;
54557;SDS011;40452;50.080;20.040;2023-04-28T15:51:04;8.57;;;4.10;;
54557;SDS011;40452;50.080;20.040;2023-04-28T15:53:30;8.40;;;3.53;;
54557;SDS011;40452;50.080;20.040;2023-04-28T15:55:57;8.48;;;3.45;;
54557;SDS011;40452;50.080;20.040;2023-04-28T15:58:23;7.57;;;3.58;;
54557;SDS011;40452;50.080;20.040;2023-04-28T16:00:48;10.13;;;3.60;;
54557;SDS011;40452;50.080;20.040;2023-04-28T16:03:16;6.97;;;3.30;;
54557;SDS011;40452;50.080;20.040;2023-04-28T16:05:42;7.90;;;3.45;;
54557;SDS011;40452;50.080;20.040;2023-04-28T16:08:09;6.38;;;3.33;;
54557;SDS011;40452;50.080;20.040;2023-04-28T16:10:35;8.95;;;3.42;;
54557;SDS011;40452;50.080;20.040;2023-04-28T16:13:01;6.50;;;3.55;;
54557;SDS011;40452;50.080;20.040;2023-04-28T16:15:26;12.82;;;3.50;;
54557;SDS011;40452;50.080;20.040;2023-04-28T16:17:52;10.63;;;3.50;;
54557;SDS011;40452;50.080;20.040;2023-04-28T16:20:18;6.80;;;3.58;;
54557;SDS011;40452;50.080;20.040;2023-04-28T16:22:43;7.28;;;3.30;;
54557;SDS011;40452;50.080;20.040;2023-04-28T16:25:09;7.18;;;2.88;;
54557;SDS011;40452;50.080;20.040;2023-04-28T16:27:36;19.67;;;3.30;;
54557;SDS011;40452;50.080;20.040;2023-04-28T16:30:02;6.50;;;3.10;;
54557;SDS011;40452;50.080;20.040;2023-04-28T16:32:31;6.20;;;3.13;;
54557;SDS011;40452;50.080;20.040;2023-04-28T16:34:57;7.13;;;3.28;;
54557;SDS011;40452;50.080;20.040;2023-04-28T16:37:23;9.63;;;3.05;;
54557;SDS011;40452;50.080;20.040;2023-04-28T16:39:50;5.72;;;2.70;;
54557;SDS011;40452;50.080;20.040;2023-04-28T16:42:15;6.57;;;3.10;;
54557;SDS011;40452;50.080;20.040;2023-04-28T16:44:41;6.32;;;2.90;;
54557;SDS011;40452;50.080;20.040;2023-04-28T16:47:07;8.38;;;3.45;;
54557;SDS011;40452;50.080;20.040;2023-04-28T16:52:38;5.07;;;2.90;;
54557;SDS011;40452;50.080;20.040;2023-04-28T16:55:40;4.72;;;2.80;;
54557;SDS011;40452;50.080;20.040;2023-04-28T16:58:05;5.18;;;2.72;;
54557;SDS011;40452;50.080;20.040;2023-04-28T17:00:31;6.63;;;2.85;;
54557;SDS011;40452;50.080;20.040;2023-04-28T17:02:57;4.47;;;2.60;;
54557;SDS011;40452;50.080;20.040;2023-04-28T17:05:22;4.72;;;2.53;;
54557;SDS011;40452;50.080;20.040;2023-04-28T17:07:51;6.15;;;2.55;;
54557;SDS011;40452;50.080;20.040;2023-04-28T17:10:24;5.72;;;2.60;;
54557;SDS011;40452;50.080;20.040;2023-04-28T17:12:52;4.07;;;2.67;;
54557;SDS011;40452;50.080;20.040;2023-04-28T17:15:18;16.75;;;2.95;;
54557;SDS011;40452;50.080;20.040;2023-04-28T17:17:48;8.38;;;2.90;;
54557;SDS011;40452;50.080;20.040;2023-04-28T17:20:15;5.00;;;2.80;;
54557;SDS011;40452;50.080;20.040;2023-04-28T17:22:43;3.83;;;2.70;;
54557;SDS011;40452;50.080;20.040;2023-04-28T17:25:10;6.78;;;2.67;;
54557;SDS011;40452;50.080;20.040;2023-04-28T17:27:36;6.03;;;3.00;;
54557;SDS011;40452;50.080;20.040;2023-04-28T17:30:02;4.25;;;2.75;;
54557;SDS011;40452;50.080;20.040;2023-04-28T17:32:28;5.78;;;2.58;;
54557;SDS011;40452;50.080;20.040;2023-04-28T17:34:55;7.10;;;2.58;;
54557;SDS011;40452;50.080;20.040;2023-04-28T17:37:21;7.55;;;2.45;;
54557;SDS011;40452;50.080;20.040;2023-04-28T17:39:50;4.78;;;3.05;;
54557;SDS011;40452;50.080;20.040;2023-04-28T17:42:15;5.65;;;2.80;;
54557;SDS011;40452;50.080;20.040;2023-04-28T17:44:41;6.93;;;2.55;;
54557;SDS011;40452;50.080;20.040;2023-04-28T17:47:07;7.68;;;2.88;;
54557;SDS011;40452;50.080;20.040;2023-04-28T17:49:33;7.78;;;2.85;;
54557;SDS011;40452;50.080;20.040;2023-04-28T17:51:58;7.95;;;3.28;;
54557;SDS011;40452;50.080;20.040;2023-04-28T17:54:24;13.43;;;3.42;;
54557;SDS011;40452;50.080;20.040;2023-04-28T17:56:49;8.23;;;3.70;;
54557;SDS011;40452;50.080;20.040;2023-04-28T17:59:18;7.28;;;3.63;;
54557;SDS011;40452;50.080;20.040;2023-04-28T18:01:44;10.38;;;3.78;;
54557;SDS011;40452;50.080;20.040;2023-04-28T18:04:09;9.27;;;3.67;;
54557;SDS011;40452;50.080;20.040;2023-04-28T18:06:35;9.18;;;3.80;;
54557;SDS011;40452;50.080;20.040;2023-04-28T18:09:03;11.15;;;4.10;;
54557;SDS011;40452;50.080;20.040;2023-04-28T18:11:29;17.38;;;4.28;;
54557;SDS011;40452;50.080;20.040;2023-04-28T18:13:54;9.75;;;4.32;;
54557;SDS011;40452;50.080;20.040;2023-04-28T18:16:22;11.02;;;4.10;;
54557;SDS011;40452;50.080;20.040;2023-04-28T18:18:47;12.45;;;4.38;;
54557;SDS011;40452;50.080;20.040;2023-04-28T18:21:13;15.02;;;4.80;;
54557;SDS011;40452;50.080;20.040;2023-04-28T18:23:38;11.23;;;4.15;;
54557;SDS011;40452;50.080;20.040;2023-04-28T18:26:04;11.55;;;4.70;;
54557;SDS011;40452;50.080;20.040;2023-04-28T18:28:32;14.25;;;4.32;;
54557;SDS011;40452;50.080;20.040;2023-04-28T18:31:00;13.10;;;4.15;;
54557;SDS011;40452;50.080;20.040;2023-04-28T18:33:28;11.70;;;4.00;;
54557;SDS011;40452;50.080;20.040;2023-04-28T18:36:00;11.38;;;4.93;;
54557;SDS011;40452;50.080;20.040;2023-04-28T18:38:28;12.63;;;6.32;;
54557;SDS011;40452;50.080;20.040;2023-04-28T18:40:55;10.07;;;4.53;;
54557;SDS011;40452;50.080;20.040;2023-04-28T18:43:21;11.63;;;4.68;;
54557;SDS011;40452;50.080;20.040;2023-04-28T18:45:47;7.57;;;4.38;;
54557;SDS011;40452;50.080;20.040;2023-04-28T18:48:13;19.02;;;5.10;;
54557;SDS011;40452;50.080;20.040;2023-04-28T18:50:38;12.25;;;4.80;;
54557;SDS011;40452;50.080;20.040;2023-04-28T18:53:04;9.60;;;5.03;;
54557;SDS011;40452;50.080;20.040;2023-04-28T18:55:32;11.82;;;4.45;;
54557;SDS011;40452;50.080;20.040;2023-04-28T18:57:58;8.45;;;4.75;;
54557;SDS011;40452;50.080;20.040;2023-04-28T19:00:25;10.25;;;4.68;;
54557;SDS011;40452;50.080;20.040;2023-04-28T19:02:51;11.32;;;4.40;;
54557;SDS011;40452;50.080;20.040;2023-04-28T19:05:16;30.92;;;13.45;;
54557;SDS011;40452;50.080;20.040;2023-04-28T19:07:42;25.30;;;14.70;;
54557;SDS011;40452;50.080;20.040;2023-04-28T19:10:08;35.15;;;18.17;;
54557;SDS011;40452;50.080;20.040;2023-04-28T19:12:33;31.08;;;18.48;;
54557;SDS011;40452;50.080;20.040;2023-04-28T19:15:02;32.97;;;17.08;;
54557;SDS011;40452;50.080;20.040;2023-04-28T19:17:31;33.85;;;18.80;;
54557;SDS011;40452;50.080;20.040;2023-04-28T19:19:57;31.13;;;18.38;;
54557;SDS011;40452;50.080;20.040;2023-04-28T19:25:02;29.65;;;17.80;;
54557;SDS011;40452;50.080;20.040;2023-04-28T19:27:32;30.58;;;16.33;;
54557;SDS011;40452;50.080;20.040;2023-04-28T19:29:59;26.90;;;16.05;;
54557;SDS011;40452;50.080;20.040;2023-04-28T19:32:25;25.30;;;15.20;;
54557;SDS011;40452;50.080;20.040;2023-04-28T19:34:51;26.42;;;16.15;;
54557;SDS011;40452;50.080;20.040;2023-04-28T19:37:16;28.50;;;15.90;;
54557;SDS011;40452;50.080;20.040;2023-04-28T19:39:42;27.13;;;15.60;;
54557;SDS011;40452;50.080;20.040;2023-04-28T19:42:08;23.20;;;14.40;;
54557;SDS011;40452;50.080;20.040;2023-04-28T19:44:34;24.90;;;14.38;;
54557;SDS011;40452;50.080;20.040;2023-04-28T19:47:03;24.15;;;14.82;;
54557;SDS011;40452;50.080;20.040;2023-04-28T19:49:32;25.90;;;15.05;;
54557;SDS011;40452;50.080;20.040;2023-04-28T19:51:58;24.38;;;15.13;;
54557;SDS011;40452;50.080;20.040;2023-04-28T19:54:24;28.23;;;14.25;;
54557;SDS011;40452;50.080;20.040;2023-04-28T19:56:51;23.60;;;14.80;;
54557;SDS011;40452;50.080;20.040;2023-04-28T19:59:17;24.73;;;13.25;;
54557;SDS011;40452;50.080;20.040;2023-04-28T20:01:43;21.80;;;13.50;;
54557;SDS011;40452;50.080;20.040;2023-04-28T20:04:09;22.17;;;13.20;;
54557;SDS011;40452;50.080;20.040;2023-04-28T20:06:37;24.10;;;10.25;;
54557;SDS011;40452;50.080;20.040;2023-04-28T20:09:04;21.40;;;11.20;;
54557;SDS011;40452;50.080;20.040;2023-04-28T20:11:29;18.60;;;10.65;;
54557;SDS011;40452;50.080;20.040;2023-04-28T20:13:56;16.98;;;10.48;;
54557;SDS011;40452;50.080;20.040;2023-04-28T20:16:22;20.83;;;10.30;;
54557;SDS011;40452;50.080;20.040;2023-04-28T20:18:48;18.80;;;10.30;;
54557;SDS011;40452;50.080;20.040;2023-04-28T20:21:14;17.27;;;11.00;;
54557;SDS011;40452;50.080;20.040;2023-04-28T20:23:43;17.05;;;10.10;;
54557;SDS011;40452;50.080;20.040;2023-04-28T20:26:12;17.73;;;10.32;;
54557;SDS011;40452;50.080;20.040;2023-04-28T20:28:39;18.85;;;10.10;;
54557;SDS011;40452;50.080;20.040;2023-04-28T20:31:08;16.73;;;9.55;;
54557;SDS011;40452;50.080;20.040;2023-04-28T20:33:33;14.93;;;9.45;;
54557;SDS011;40452;50.080;20.040;2023-04-28T20:35:59;16.17;;;9.55;;
54557;SDS011;40452;50.080;20.040;2023-04-28T20:38:24;20.08;;;9.43;;
54557;SDS011;40452;50.080;20.040;2023-04-28T20:40:50;15.45;;;8.90;;
54557;SDS011;40452;50.080;20.040;2023-04-28T20:43:16;18.17;;;9.23;;
54557;SDS011;40452;50.080;20.040;2023-04-28T20:45:42;14.65;;;8.80;;
54557;SDS011;40452;50.080;20.040;2023-04-28T20:48:08;14.05;;;8.30;;
54557;SDS011;40452;50.080;20.040;2023-04-28T20:50:35;16.90;;;8.75;;
54557;SDS011;40452;50.080;20.040;2023-04-28T20:53:02;13.98;;;8.27;;
54557;SDS011;40452;50.080;20.040;2023-04-28T20:55:28;15.38;;;8.68;;
54557;SDS011;40452;50.080;20.040;2023-04-28T20:57:53;17.15;;;8.82;;
54557;SDS011;40452;50.080;20.040;2023-04-28T21:00:19;12.63;;;8.15;;
54557;SDS011;40452;50.080;20.040;2023-04-28T21:02:45;13.20;;;8.55;;
54557;SDS011;40452;50.080;20.040;2023-04-28T21:05:11;11.93;;;7.85;;
54557;SDS011;40452;50.080;20.040;2023-04-28T21:07:36;14.55;;;8.45;;
54557;SDS011;40452;50.080;20.040;2023-04-28T21:10:02;16.33;;;8.90;;
54557;SDS011;40452;50.080;20.040;2023-04-28T21:12:28;12.38;;;8.40;;
54557;SDS011;40452;50.080;20.040;2023-04-28T21:14:53;14.88;;;8.77;;
54557;SDS011;40452;50.080;20.040;2023-04-28T21:17:19;16.50;;;8.85;;
54557;SDS011;40452;50.080;20.040;2023-04-28T21:19:44;13.98;;;8.30;;
54557;SDS011;40452;50.080;20.040;2023-04-28T21:22:10;16.05;;;9.45;;
54557;SDS011;40452;50.080;20.040;2023-04-28T21:24:35;16.42;;;8.77;;
54557;SDS011;40452;50.080;20.040;2023-04-28T21:27:01;17.65;;;8.88;;
54557;SDS011;40452;50.080;20.040;2023-04-28T21:29:28;16.02;;;8.70;;
54557;SDS011;40452;50.080;20.040;2023-04-28T21:31:54;16.17;;;9.23;;
54557;SDS011;40452;50.080;20.040;2023-04-28T21:34:19;17.55;;;9.73;;
54557;SDS011;40452;50.080;20.040;2023-04-28T21:36:45;15.73;;;8.75;;
54557;SDS011;40452;50.080;20.040;2023-04-28T21:39:10;16.75;;;9.48;;
54557;SDS011;40452;50.080;20.040;2023-04-28T21:41:36;18.17;;;8.98;;
54557;SDS011;40452;50.080;20.040;2023-04-28T21:44:02;20.58;;;9.40;;
54557;SDS011;40452;50.080;20.040;2023-04-28T21:46:27;14.27;;;9.13;;
54557;SDS011;40452;50.080;20.040;2023-04-28T21:48:53;15.60;;;9.00;;
54557;SDS011;40452;50.080;20.040;2023-04-28T21:51:19;14.45;;;8.50;;
54557;SDS011;40452;50.080;20.040;2023-04-28T21:53:45;16.23;;;9.05;;
54557;SDS011;40452;50.080;20.040;2023-04-28T21:56:10;16.10;;;9.18;;
54557;SDS011;40452;50.080;20.040;2023-04-28T21:58:36;16.10;;;8.90;;
54557;SDS011;40452;50.080;20.040;2023-04-28T22:01:02;13.57;;;8.40;;
54557;SDS011;40452;50.080;20.040;2023-04-28T22:03:29;15.38;;;8.70;;
54557;SDS011;40452;50.080;20.040;2023-04-28T22:05:55;13.85;;;8.30;;
54557;SDS011;40452;50.080;20.040;2023-04-28T22:08:21;14.20;;;8.80;;
54557;SDS011;40452;50.080;20.040;2023-04-28T22:10:46;12.73;;;8.07;;
54557;SDS011;40452;50.080;20.040;2023-04-28T22:13:12;15.00;;;9.07;;
54557;SDS011;40452;50.080;20.040;2023-04-28T22:15:38;16.02;;;9.02;;
54557;SDS011;40452;50.080;20.040;2023-04-28T22:18:03;14.73;;;8.00;;
54557;SDS011;40452;50.080;20.040;2023-04-28T22:20:31;12.70;;;8.07;;
54557;SDS011;40452;50.080;20.040;2023-04-28T22:22:57;14.48;;;8.10;;
54557;SDS011;40452;50.080;20.040;2023-04-28T22:25:23;13.80;;;8.07;;
54557;SDS011;40452;50.080;20.040;2023-04-28T22:27:48;13.50;;;7.82;;
54557;SDS011;40452;50.080;20.040;2023-04-28T22:30:14;13.32;;;7.47;;
